createdAt,value
2019-04-30T00:00:55.294Z,27.90
2019-04-30T00:03:30.146Z,26.00
2019-04-30T00:06:00.717Z,27.53
2019-04-30T00:08:35.559Z,27.57
2019-04-30T00:11:05.223Z,27.87
2019-04-30T00:13:35.971Z,27.33
2019-04-30T00:16:06.407Z,28.93
2019-04-30T00:18:39.582Z,27.77
2019-04-30T00:21:10.003Z,28.07
2019-04-30T00:23:41.484Z,28.30
2019-04-30T00:26:12.012Z,27.97
2019-04-30T00:28:46.235Z,27.47
2019-04-30T00:31:17.616Z,28.97
2019-04-30T00:33:47.079Z,28.63
2019-04-30T00:36:17.528Z,27.53
2019-04-30T00:38:48.091Z,28.00
2019-04-30T00:41:18.540Z,28.83
2019-04-30T00:43:50.748Z,27.63
2019-04-30T00:46:25.062Z,29.40
2019-04-30T00:48:56.806Z,28.47
2019-04-30T00:51:26.357Z,29.17
2019-04-30T00:53:56.890Z,27.60
2019-04-30T00:56:28.358Z,27.67
2019-04-30T00:59:02.414Z,29.73
2019-04-30T01:01:48.738Z,31.20
2019-04-30T01:04:28.001Z,31.43
2019-04-30T01:07:00.290Z,32.07
2019-04-30T01:09:29.285Z,31.23
2019-04-30T01:11:59.812Z,31.60
2019-04-30T01:14:31.995Z,32.47
2019-04-30T01:17:03.751Z,31.73
2019-04-30T01:19:35.393Z,33.23
2019-04-30T01:22:05.907Z,32.50
2019-04-30T01:24:38.641Z,34.13
2019-04-30T01:27:10.629Z,29.53
2019-04-30T01:29:44.344Z,32.80
2019-04-30T01:32:17.572Z,32.10
2019-04-30T01:34:49.845Z,31.37
2019-04-30T01:37:20.344Z,30.23
2019-04-30T01:39:50.716Z,30.77
2019-04-30T01:42:21.348Z,31.73
2019-04-30T01:44:53.840Z,31.63
2019-04-30T01:47:27.639Z,31.23
2019-04-30T01:50:00.987Z,33.00
2019-04-30T01:52:35.117Z,31.10
2019-04-30T01:55:02.359Z,33.77
2019-04-30T01:57:34.334Z,34.07
2019-04-30T02:00:14.005Z,32.20
2019-04-30T02:02:46.155Z,31.83
2019-04-30T02:05:18.767Z,34.13
2019-04-30T02:07:49.359Z,55.87
2019-04-30T02:10:20.032Z,52.60
2019-04-30T02:12:50.615Z,50.70
2019-04-30T02:15:21.137Z,51.83
2019-04-30T02:17:51.608Z,46.93
2019-04-30T02:20:22.220Z,51.13
2019-04-30T02:22:52.640Z,43.17
2019-04-30T02:25:23.212Z,44.47
2019-04-30T02:27:53.669Z,37.07
2019-04-30T02:30:24.264Z,39.33
2019-04-30T02:32:56.027Z,36.90
2019-04-30T02:35:37.339Z,32.23
2019-04-30T02:38:12.264Z,32.33
2019-04-30T02:40:43.049Z,31.57
2019-04-30T02:43:14.597Z,33.23
2019-04-30T02:45:49.583Z,35.47
2019-04-30T02:48:22.387Z,34.00
2019-04-30T02:50:55.692Z,36.10
2019-04-30T02:53:51.690Z,35.87
2019-04-30T02:56:26.519Z,33.50
2019-04-30T02:58:56.072Z,35.10
2019-04-30T03:01:26.544Z,37.37
2019-04-30T03:03:59.561Z,39.20
2019-04-30T03:06:30.340Z,54.30
2019-04-30T03:09:01.434Z,57.30
2019-04-30T03:11:32.047Z,54.53
2019-04-30T03:14:02.492Z,55.73
2019-04-30T03:16:39.965Z,58.63
2019-04-30T03:19:23.183Z,58.10
2019-04-30T03:22:01.191Z,54.80
2019-04-30T03:24:31.605Z,51.63
2019-04-30T03:27:02.338Z,50.53
2019-04-30T03:29:33.025Z,43.07
2019-04-30T03:32:03.823Z,40.50
2019-04-30T03:34:34.346Z,37.10
2019-04-30T03:37:04.794Z,36.23
2019-04-30T03:39:35.370Z,36.33
2019-04-30T03:42:05.894Z,38.23
2019-04-30T03:44:36.295Z,35.77
2019-04-30T03:47:07.044Z,40.20
2019-04-30T03:49:40.101Z,47.07
2019-04-30T03:52:13.116Z,48.20
2019-04-30T03:54:42.114Z,50.77
2019-04-30T03:57:12.579Z,53.00
2019-04-30T03:59:43.100Z,40.03
2019-04-30T04:02:15.224Z,41.30
2019-04-30T04:04:53.318Z,40.67
2019-04-30T04:07:29.997Z,39.80
2019-04-30T04:10:02.195Z,37.40
2019-04-30T04:12:32.713Z,33.57
2019-04-30T04:15:04.210Z,31.53
2019-04-30T04:17:34.765Z,33.50
2019-04-30T04:20:06.631Z,31.33
2019-04-30T04:22:40.096Z,31.70
2019-04-30T04:25:13.277Z,32.07
2019-04-30T04:27:42.419Z,32.03
2019-04-30T04:30:12.942Z,33.00
2019-04-30T04:32:43.516Z,31.93
2019-04-30T04:35:14.170Z,30.70
2019-04-30T04:37:44.783Z,31.13
2019-04-30T04:40:15.189Z,29.70
2019-04-30T04:42:45.793Z,29.50
2019-04-30T04:45:16.205Z,27.50
2019-04-30T04:47:46.796Z,27.63
2019-04-30T04:50:19.867Z,29.63
2019-04-30T04:52:49.820Z,27.97
2019-04-30T04:55:22.274Z,28.57
2019-04-30T04:57:52.639Z,26.63
2019-04-30T05:00:23.229Z,25.80
2019-04-30T05:02:59.339Z,25.70
2019-04-30T05:05:30.048Z,25.23
2019-04-30T05:08:00.544Z,24.23
2019-04-30T05:10:31.091Z,23.07
2019-04-30T05:13:01.548Z,24.47
2019-04-30T05:15:31.995Z,21.67
2019-04-30T05:18:02.597Z,21.77
2019-04-30T05:20:33.141Z,20.30
2019-04-30T05:23:03.705Z,19.83
2019-04-30T05:25:34.562Z,19.40
2019-04-30T05:28:05.444Z,20.20
2019-04-30T05:30:36.061Z,18.27
2019-04-30T05:33:18.510Z,18.83
2019-04-30T05:35:49.691Z,18.20
2019-04-30T05:38:20.117Z,17.30
2019-04-30T05:40:50.560Z,18.50
2019-04-30T05:43:21.023Z,18.27
2019-04-30T05:45:51.560Z,17.23
2019-04-30T05:48:22.037Z,19.63
2019-04-30T05:50:52.433Z,19.83
2019-04-30T05:53:22.872Z,17.00
2019-04-30T05:55:53.267Z,18.17
2019-04-30T05:58:23.763Z,18.87
2019-04-30T06:00:54.216Z,19.40
2019-04-30T06:03:28.149Z,17.40
2019-04-30T06:05:56.760Z,17.17
2019-04-30T06:08:29.317Z,16.10
2019-04-30T06:11:04.466Z,16.17
2019-04-30T06:13:38.385Z,16.57
2019-04-30T06:16:10.314Z,16.10
2019-04-30T06:18:42.298Z,15.13
2019-04-30T06:21:12.904Z,14.37
2019-04-30T06:23:43.559Z,18.17
2019-04-30T06:26:14.482Z,23.50
2019-04-30T06:28:45.145Z,19.35
2019-04-30T06:31:15.591Z,19.17
2019-04-30T06:33:46.285Z,13.55
2019-04-30T06:36:19.030Z,14.30
2019-04-30T06:38:49.190Z,13.05
2019-04-30T06:41:19.876Z,13.78
2019-04-30T06:43:51.467Z,13.18
2019-04-30T06:46:22.030Z,13.75
2019-04-30T06:48:53.266Z,13.05
2019-04-30T06:51:23.865Z,12.68
2019-04-30T06:53:54.434Z,12.30
2019-04-30T06:56:25.071Z,12.78
2019-04-30T06:58:55.662Z,11.93
2019-04-30T07:01:29.029Z,11.48
2019-04-30T07:04:01.010Z,11.63
2019-04-30T07:06:36.690Z,12.05
2019-04-30T07:09:08.877Z,12.37
2019-04-30T07:11:40.938Z,11.57
2019-04-30T07:14:11.489Z,12.98
2019-04-30T07:16:41.894Z,10.60
2019-04-30T07:19:12.375Z,9.95
2019-04-30T07:21:45.227Z,9.43
2019-04-30T07:24:15.184Z,9.75
2019-04-30T07:26:45.599Z,20.08
2019-04-30T07:29:16.193Z,22.42
2019-04-30T07:31:46.608Z,19.80
2019-04-30T07:34:19.488Z,20.62
2019-04-30T07:37:09.639Z,20.52
2019-04-30T07:39:23.562Z,20.25
2019-04-30T07:41:53.575Z,9.68
2019-04-30T07:44:33.802Z,8.73
2019-04-30T07:46:56.227Z,18.30
2019-04-30T07:49:45.960Z,17.10
2019-04-30T07:52:01.137Z,7.87
2019-04-30T07:54:30.889Z,8.10
2019-04-30T07:57:01.325Z,7.50
2019-04-30T07:59:31.863Z,7.83
2019-04-30T08:02:10.022Z,19.25
2019-04-30T08:04:45.005Z,21.27
2019-04-30T08:07:15.545Z,20.02
2019-04-30T08:09:46.103Z,10.15
2019-04-30T08:12:26.286Z,16.85
2019-04-30T08:14:49.598Z,9.20
2019-04-30T08:17:20.100Z,7.53
2019-04-30T08:19:50.553Z,8.15
2019-04-30T08:22:21.341Z,24.12
2019-04-30T08:24:52.003Z,25.35
2019-04-30T08:27:22.546Z,17.70
2019-04-30T08:29:54.336Z,7.87
2019-04-30T08:32:24.925Z,7.67
2019-04-30T08:34:55.396Z,8.18
2019-04-30T08:37:25.975Z,7.90
2019-04-30T08:39:59.367Z,9.83
2019-04-30T08:42:33.929Z,9.35
2019-04-30T08:45:01.607Z,7.78
2019-04-30T08:47:32.066Z,6.78
2019-04-30T08:50:05.961Z,7.72
2019-04-30T08:52:36.744Z,7.55
2019-04-30T08:55:16.147Z,7.45
2019-04-30T08:57:41.011Z,7.87
2019-04-30T09:00:15.199Z,7.75
2019-04-30T09:02:50.774Z,6.95
2019-04-30T09:05:23.422Z,8.38
2019-04-30T09:07:55.553Z,6.50
2019-04-30T09:10:26.819Z,6.95
2019-04-30T09:12:59.785Z,9.73
2019-04-30T09:15:30.686Z,12.28
2019-04-30T09:18:07.100Z,11.85
2019-04-30T09:20:34.988Z,12.03
2019-04-30T09:23:10.964Z,13.70
2019-04-30T09:25:41.065Z,13.93
2019-04-30T09:28:19.841Z,14.13
2019-04-30T09:30:58.737Z,14.30
2019-04-30T09:33:34.781Z,14.68
2019-04-30T09:36:09.028Z,13.68
2019-04-30T09:38:39.884Z,13.43
2019-04-30T09:41:10.528Z,13.75
2019-04-30T09:43:41.309Z,14.07
2019-04-30T09:46:21.275Z,13.08
2019-04-30T09:48:45.458Z,15.60
2019-04-30T09:51:16.761Z,12.23
2019-04-30T09:53:56.809Z,13.60
2019-04-30T09:56:30.146Z,12.70
2019-04-30T09:59:06.009Z,10.90
2019-04-30T10:01:42.022Z,12.50
2019-04-30T10:04:20.277Z,10.95
2019-04-30T10:06:53.624Z,11.55
2019-04-30T10:09:25.971Z,12.37
2019-04-30T10:12:07.045Z,14.23
2019-04-30T10:14:40.789Z,13.55
2019-04-30T10:17:23.495Z,12.95
2019-04-30T10:19:54.094Z,13.15
2019-04-30T10:22:24.736Z,13.83
2019-04-30T10:25:09.279Z,14.55
2019-04-30T10:27:41.451Z,14.83
2019-04-30T10:30:13.469Z,18.25
2019-04-30T10:32:44.232Z,21.95
2019-04-30T10:35:18.376Z,22.65
2019-04-30T10:37:50.739Z,22.50
2019-04-30T10:40:23.546Z,22.77
2019-04-30T10:42:58.807Z,22.75
2019-04-30T10:45:30.177Z,28.57
2019-04-30T10:48:00.936Z,36.85
2019-04-30T10:50:31.499Z,35.08
2019-04-30T10:53:02.192Z,47.05
2019-04-30T10:55:33.162Z,45.33
2019-04-30T10:58:25.505Z,47.45
2019-04-30T11:01:02.016Z,50.25
2019-04-30T11:03:35.092Z,50.92
2019-04-30T11:06:05.687Z,48.83
2019-04-30T11:08:36.322Z,49.77
2019-04-30T11:11:06.954Z,49.33
2019-04-30T11:13:37.480Z,41.37
2019-04-30T11:16:14.624Z,46.73
2019-04-30T11:18:40.464Z,47.90
2019-04-30T11:21:11.470Z,48.45
2019-04-30T11:23:42.353Z,44.42
2019-04-30T11:26:13.822Z,42.93
2019-04-30T11:28:45.137Z,45.33
2019-04-30T11:31:26.852Z,43.75
2019-04-30T11:33:59.264Z,44.05
2019-04-30T11:36:29.797Z,41.50
2019-04-30T11:39:00.701Z,42.00
2019-04-30T11:41:33.311Z,41.55
2019-04-30T11:44:03.669Z,41.08
2019-04-30T11:46:54.270Z,38.55
2019-04-30T11:49:24.919Z,37.13
2019-04-30T11:51:55.592Z,38.00
2019-04-30T11:54:26.221Z,35.58
2019-04-30T11:56:58.674Z,38.63
2019-04-30T11:59:29.765Z,37.35
2019-04-30T12:02:02.119Z,36.45
2019-04-30T12:04:32.683Z,36.83
2019-04-30T12:07:13.549Z,36.35
2019-04-30T12:10:01.783Z,36.17
2019-04-30T12:12:32.200Z,35.90
2019-04-30T12:15:02.935Z,35.95
2019-04-30T12:17:33.471Z,35.23
2019-04-30T12:20:08.647Z,34.50
2019-04-30T12:23:03.861Z,34.88
2019-04-30T12:30:58.813Z,32.05
2019-04-30T12:32:12.526Z,34.50
2019-04-30T12:34:52.475Z,33.83
2019-04-30T12:37:24.659Z,33.25
2019-04-30T12:39:59.386Z,30.92
2019-04-30T12:42:44.337Z,30.60
2019-04-30T12:45:19.991Z,30.60
2019-04-30T12:48:10.589Z,31.70
2019-04-30T12:50:53.998Z,29.27
2019-04-30T12:53:32.186Z,29.32
2019-04-30T12:56:09.015Z,29.52
2019-04-30T12:58:43.875Z,27.82
2019-04-30T13:01:16.617Z,28.45
2019-04-30T13:03:58.122Z,28.27
2019-04-30T13:06:22.800Z,27.58
2019-04-30T13:08:56.573Z,26.73
2019-04-30T13:14:51.723Z,26.40
2019-04-30T13:17:45.606Z,26.82
2019-04-30T13:47:32.299Z,23.35
2019-04-30T13:50:09.334Z,24.85
2019-04-30T13:52:41.134Z,25.55
2019-04-30T13:55:19.266Z,25.95
2019-04-30T13:57:51.001Z,24.37
2019-04-30T14:00:35.336Z,23.20
2019-04-30T14:03:33.024Z,23.73
2019-04-30T14:06:05.812Z,23.35
2019-04-30T14:08:51.389Z,23.62
2019-04-30T14:41:27.372Z,20.52
2019-04-30T15:01:13.349Z,21.42
2019-04-30T15:37:34.110Z,22.55
2019-04-30T16:04:01.485Z,24.55
2019-04-30T16:06:44.676Z,24.40
2019-04-30T16:10:14.350Z,25.00
2019-04-30T16:16:14.362Z,26.73
2019-04-30T16:58:02.096Z,29.10
2019-04-30T17:00:39.329Z,27.77
2019-04-30T17:03:21.784Z,29.03
2019-04-30T17:06:19.445Z,26.53
2019-04-30T17:08:55.404Z,27.43
2019-04-30T17:11:49.044Z,27.90
2019-04-30T17:14:20.834Z,26.00
2019-04-30T17:16:51.834Z,28.07
2019-04-30T17:19:34.280Z,27.40
2019-04-30T17:22:06.005Z,27.73
2019-04-30T17:24:39.224Z,29.03
2019-04-30T17:27:18.045Z,29.00
2019-04-30T17:29:49.886Z,28.00
2019-04-30T17:32:20.591Z,28.67
2019-04-30T17:34:51.478Z,28.20
2019-04-30T17:37:22.705Z,27.77
2019-04-30T17:39:53.673Z,29.17
2019-04-30T17:42:42.943Z,28.20
2019-04-30T17:45:16.955Z,27.67
2019-04-30T17:47:50.738Z,29.03
2019-04-30T17:50:37.078Z,28.27
2019-04-30T17:53:13.130Z,29.33
2019-04-30T17:55:44.262Z,28.90
2019-04-30T17:58:15.262Z,27.87
2019-04-30T18:00:48.763Z,28.73
2019-04-30T18:03:21.234Z,29.73
2019-04-30T18:05:52.011Z,29.67
2019-04-30T18:08:28.022Z,29.47
2019-04-30T18:10:55.387Z,30.13
2019-04-30T18:13:25.991Z,29.07
2019-04-30T18:15:56.539Z,30.67
2019-04-30T18:18:28.592Z,30.00
2019-04-30T18:21:03.804Z,27.80
2019-04-30T18:23:38.510Z,29.93
2019-04-30T18:26:13.507Z,28.03
2019-04-30T18:28:43.862Z,30.23
2019-04-30T18:31:14.332Z,30.60
2019-04-30T18:33:44.764Z,30.40
2019-04-30T18:36:15.324Z,31.00
2019-04-30T18:38:45.942Z,31.40
2019-04-30T18:41:16.410Z,32.97
2019-04-30T18:43:48.580Z,33.73
2019-04-30T18:46:19.243Z,30.23
2019-04-30T18:48:52.594Z,28.10
2019-04-30T18:51:33.871Z,28.03
2019-04-30T18:53:54.251Z,26.80
2019-04-30T18:56:24.637Z,29.03
2019-04-30T18:58:55.218Z,28.53
2019-04-30T19:01:25.656Z,28.50
2019-04-30T19:03:56.213Z,27.53
2019-04-30T19:06:26.825Z,26.93
2019-04-30T19:09:10.666Z,26.93
2019-04-30T19:11:59.362Z,26.80
2019-04-30T19:14:49.194Z,26.40
2019-04-30T19:17:24.146Z,26.57
2019-04-30T19:20:12.458Z,28.13
2019-04-30T19:22:42.861Z,27.63
2019-04-30T19:25:13.299Z,28.50
2019-04-30T19:27:43.733Z,27.50
2019-04-30T19:30:14.478Z,27.63
2019-04-30T19:32:44.919Z,26.73
2019-04-30T19:35:15.478Z,27.67
2019-04-30T19:37:45.903Z,29.70
2019-04-30T19:40:16.353Z,27.67
2019-04-30T19:42:48.904Z,28.07
2019-04-30T19:45:18.976Z,27.77
2019-04-30T19:47:49.478Z,28.67
2019-04-30T19:50:19.947Z,26.63
2019-04-30T19:52:50.364Z,28.67
2019-04-30T19:55:20.826Z,29.27
2019-04-30T19:57:51.245Z,27.17
2019-04-30T20:00:22.297Z,27.53
2019-04-30T20:02:52.728Z,27.70
2019-04-30T20:05:23.266Z,30.07
2019-04-30T20:07:53.685Z,29.60
2019-04-30T20:10:24.165Z,29.10
2019-04-30T20:12:54.592Z,29.20
2019-04-30T20:15:25.047Z,29.17
2019-04-30T20:17:55.480Z,34.00
2019-04-30T20:20:25.936Z,32.23
2019-04-30T20:22:56.354Z,33.83
2019-04-30T20:25:26.819Z,34.97
2019-04-30T20:27:57.291Z,32.97
2019-04-30T20:30:29.219Z,29.70
2019-04-30T20:32:59.659Z,28.93
2019-04-30T20:35:30.139Z,29.27
2019-04-30T20:38:19.467Z,30.00
2019-04-30T20:41:00.258Z,28.90
2019-04-30T20:43:23.923Z,29.73
2019-04-30T20:45:54.395Z,27.80
2019-04-30T20:48:24.832Z,28.40
2019-04-30T20:50:55.319Z,27.60
2019-04-30T20:53:25.660Z,28.70
2019-04-30T20:55:56.112Z,28.40
2019-04-30T20:58:26.516Z,30.60
2019-04-30T21:01:03.405Z,33.53
2019-04-30T21:03:29.656Z,33.20
2019-04-30T21:06:00.614Z,32.73
2019-04-30T21:08:31.037Z,30.20
2019-04-30T21:11:01.427Z,29.83
2019-04-30T21:13:31.824Z,29.87
2019-04-30T21:16:02.279Z,29.73
2019-04-30T21:18:33.640Z,29.23
2019-04-30T21:21:04.099Z,30.10
2019-04-30T21:23:34.538Z,28.47
2019-04-30T21:26:05.011Z,26.90
2019-04-30T21:28:35.339Z,29.37
2019-04-30T21:31:23.520Z,30.90
2019-04-30T21:33:58.129Z,30.73
2019-04-30T21:36:28.484Z,30.43
2019-04-30T21:38:59.106Z,28.00
2019-04-30T21:41:29.812Z,27.77
2019-04-30T21:44:00.295Z,28.50
2019-04-30T21:46:30.801Z,27.73
2019-04-30T21:49:01.214Z,26.33
2019-04-30T21:51:31.698Z,26.70
2019-04-30T21:54:02.132Z,27.33
2019-04-30T21:56:32.612Z,28.00
2019-04-30T21:59:03.022Z,29.20
2019-04-30T22:01:33.500Z,27.70
2019-04-30T22:04:04.032Z,27.63
2019-04-30T22:06:34.566Z,27.10
2019-04-30T22:09:07.171Z,28.17
2019-04-30T22:11:39.476Z,25.27
2019-04-30T22:14:09.971Z,26.53
2019-04-30T22:16:40.426Z,24.07
2019-04-30T22:19:10.849Z,25.97
2019-04-30T22:21:41.342Z,24.63
2019-04-30T22:24:11.772Z,26.10
2019-04-30T22:26:42.240Z,27.27
2019-04-30T22:29:12.667Z,24.17
2019-04-30T22:31:44.107Z,24.23
2019-04-30T22:34:14.530Z,24.73
2019-04-30T22:36:48.662Z,24.30
2019-04-30T22:39:20.175Z,25.60
2019-04-30T22:41:50.611Z,24.57
2019-04-30T22:44:21.025Z,25.33
2019-04-30T22:46:51.509Z,26.30
2019-04-30T22:49:21.942Z,25.07
2019-04-30T22:51:52.409Z,27.43
2019-04-30T22:54:22.852Z,26.10
2019-04-30T22:56:53.310Z,24.67
2019-04-30T22:59:23.660Z,26.03
2019-04-30T23:02:04.507Z,24.80
2019-04-30T23:04:39.242Z,24.33
2019-04-30T23:07:09.781Z,24.83
2019-04-30T23:09:40.207Z,26.13
2019-04-30T23:12:10.762Z,25.63
2019-04-30T23:14:41.095Z,26.33
2019-04-30T23:17:11.617Z,24.40
2019-04-30T23:19:49.183Z,24.53
2019-04-30T23:22:14.316Z,24.57
2019-04-30T23:24:44.758Z,23.57
2019-04-30T23:27:15.271Z,25.63
2019-04-30T23:29:45.731Z,25.27
2019-04-30T23:32:16.239Z,26.03
2019-04-30T23:34:46.698Z,24.90
2019-04-30T23:37:17.168Z,25.03
2019-04-30T23:39:47.682Z,26.03
2019-04-30T23:42:18.169Z,25.60
2019-04-30T23:44:48.652Z,25.57
2019-04-30T23:47:19.120Z,23.27
2019-04-30T23:49:49.546Z,24.57
2019-04-30T23:52:20.065Z,24.87
2019-04-30T23:54:50.483Z,24.17
2019-04-30T23:57:20.948Z,24.77
2019-04-30T23:59:51.381Z,24.23
